首页
METAR-TAF:

METAR-TAF

机场 :

Wausau, 威斯康辛州, 美国

纬度: 44-55-43N, 经度: 089-37-36W, 海拔: 366米

当前天气观测

该预报发布于25分钟前的09:03 UTC
风速5节,风向东转东北
温度 2°C
湿度 100%
气压 993 hPa
能見度: 4.0公里
阴天层高于300英尺
轻雾

METAR: KAUW 290903Z AUTO 07005KT 2 1/2SM BR OVC003 02/02 A2932 RMK AO2 T00220022 $

时间: 04:28 (09:28 UTC)

预报

该预报发布于2小时和24分钟前的07:04 UTC
预报有效从29日的 07点(UTC)到 30日的 06点(UTC)
风速14节,风向东转东北,有时为20节阵风
能見度: 10公里
多云层高于1300英尺
多云层高于6000英尺
从 29日的 0800点(UTC)
风速7节,风向
能見度: 6.4公里
多云层高于900英尺
阴天层高于5000英尺
小雨, 轻雾
短暂存在
从 29日的 10点(UTC)到 29日的 14点(UTC)
能見度: 1.6公里
多云层高于400英尺
小雨, 轻雾
从 29日的 1400点(UTC)
风速7节,风向
能見度: 2.4公里
阴天层高于300英尺
小阵雨, 轻雾
从 29日的 1800点(UTC)
风速14节,风向西北,有时为26节阵风
能見度: 1.6公里
阴天层高于800英尺
小阵雨, 轻雾
从 29日的 2300点(UTC)
风速15节,风向西北,有时为26节阵风
能見度: 1.6公里
阴天层高于1000英尺
小阵雨
从 30日的 0100点(UTC)
风速13节,风向西北,有时为21节阵风
能見度: 10公里
多云层高于1600英尺
小阵雨, 雪

TAF: KAUW 290704Z 2907/3006 07014G20KT P6SM BKN013 BKN060 WS020/16035KT FM290800 09007KT 4SM -RA BR BKN009 OVC050 TEMPO 2910/2914 1SM -RA BR BKN004 FM291400 35007KT 1 1/2SM -SHRA BR OVC003 FM291800 32014G26KT 4SM -SHRA BR OVC008 FM292300 32015G26KT 5SM -SHRA OVC010 FM300100 32013G21KT P6SM -SHRASN BKN016 WS020/35040KT

超过4000个机场的气象观测和天气预报(METAR&TAF报告)。

可查询的气象台以黄色和红色小点在地图上表示。

将鼠标移到小点上方,可查看气象台名称。

然后点击查看天气观测和预报。

如需切换地图:点击带黑十字的绿色按钮放大地图;点击带横线的绿色按钮缩小地图;或者点击绿色箭头查看邻近地区的地图。


METAR-TAF: